EDLW

Dortmund Airport

Dortmund, Germany
METAR EDLW 181120Z 01004KT 310V060 9999 FEW019 SCT022 15/11 Q1023 ATIS R
Observed Flight Rules
Oct-18 @ 11:20 UTC (14 minutes ago) Visual Flight Rules
Wind Visibility Clouds
10° at 4 knots 10,000+ meters
  • Few at 1,900' AGL
  • Scattered at 2,200' AGL
Temperatures Readings
Current 15°C / 59°F
Dewpoint 11°C / 52°F
Humidity 77%
Altimeter 30.21" Hg
Pressure 1023 hPa
Elevation 127
METAR EDLW 181120Z 01004KT 310V060 9999 FEW019 SCT022 15/11 Q1023 ATIS R
Observed Flight Rules
Oct-18 @ 11:20 UTC
(14 minutes ago)
VFR
Wind Visibility
10° at 4 knots 10,000+ meters
Clouds
  • Few at 1,900' AGL
  • Scattered at 2,200' AGL
Temperature Dewpoint
15°C / 59°F 11°C / 52°F
Humidity Altimeter Pressure
77% 30.21" Hg 1023 hPa